Decoded Metar for GCXO (TENERIFE in SPAIN) (IATA:TFN) | Meteo·Mobile Aviation Weather
aviador You're here:

GCXO Decoded Metar

TENERIFE in SPAIN
Report Time2018-11-16 03:00:00
UTC Time2018-11-16 03:20:38
Flight Rules vfr VFR
Wind280° at 12 kt
W.Decomp.*RWY 30: 11.6 kt HW 3.1 kt LCW
W.Rank280° ranks 5
Current wind is above 280° avg. (9.3)
Visibility9999 m
Phenomena:N/A
Clouds:N/A
Expected CloudBase > 800 ft AGL from Temp-Dew spread
CeilingNone
Temp12°C (ISA +1)
Dew Point10°C (88% RH)
AAT7.7°C
QNH1016 hPa
Density Alt2,277 ft
Elevation2,073 ft
Report Wrong Elevation
Raw Report
GCXO 160300Z AUTO 28012KT 9999 NCD 12/10 Q1016=

Extra information for GCXO:More info

Metar Taf Metar & Taf Last 4 Metars F.Rules Stats Wind Profile Meteogram Temp Stats Airport Information Weather charts Add Link Nearby VenuesMetar ALERT Operation Metar Decoded Social comments